createdAt,value
2022-08-03T00:02:16.774Z,20.98
2022-08-03T00:04:43.992Z,21.02
2022-08-03T00:07:11.067Z,21.05
2022-08-03T00:09:37.852Z,21.16
2022-08-03T00:12:07.651Z,21.26
2022-08-03T00:14:34.668Z,21.34
2022-08-03T00:17:01.647Z,21.37
2022-08-03T00:19:28.635Z,21.29
2022-08-03T00:21:55.397Z,21.27
2022-08-03T00:24:22.348Z,21.23
2022-08-03T00:26:49.095Z,21.20
2022-08-03T00:29:20.532Z,21.15
2022-08-03T00:31:52.799Z,21.18
2022-08-03T00:34:34.590Z,21.09
2022-08-03T00:37:13.276Z,21.01
2022-08-03T00:39:40.966Z,21.02
2022-08-03T00:42:07.861Z,21.07
2022-08-03T00:44:43.217Z,21.10
2022-08-03T00:47:10.981Z,20.99
2022-08-03T00:49:39.907Z,21.01
2022-08-03T00:52:11.673Z,21.04
2022-08-03T00:54:39.092Z,21.05
2022-08-03T00:57:06.658Z,21.06
2022-08-03T00:59:33.735Z,20.95
2022-08-03T01:02:00.606Z,20.77
2022-08-03T01:04:28.177Z,20.79
2022-08-03T01:07:17.608Z,20.70
2022-08-03T01:10:12.385Z,20.66
2022-08-03T01:12:48.989Z,20.70
2022-08-03T01:15:46.303Z,20.71
2022-08-03T01:18:22.462Z,20.67
2022-08-03T01:20:55.965Z,20.68
2022-08-03T01:23:55.604Z,20.74
2022-08-03T01:26:25.457Z,20.78
2022-08-03T01:29:21.432Z,20.82
2022-08-03T01:33:02.686Z,20.83
2022-08-03T01:35:02.551Z,20.85
2022-08-03T01:37:39.891Z,20.87
2022-08-03T01:40:09.708Z,20.87
2022-08-03T01:42:40.137Z,20.89
2022-08-03T01:45:10.886Z,20.90
2022-08-03T01:47:39.422Z,20.94
2022-08-03T01:50:09.003Z,20.96
2022-08-03T01:52:40.528Z,20.96
2022-08-03T01:55:11.798Z,20.95
2022-08-03T01:58:04.694Z,20.94
2022-08-03T02:00:28.512Z,20.91
2022-08-03T02:02:56.774Z,20.89
2022-08-03T02:05:24.890Z,20.80
2022-08-03T02:07:52.640Z,20.83
2022-08-03T02:10:34.819Z,20.87
2022-08-03T02:13:04.167Z,20.82
2022-08-03T02:15:34.108Z,20.82
2022-08-03T02:18:05.298Z,20.85
2022-08-03T02:20:36.453Z,20.80
2022-08-03T02:23:03.676Z,20.81
2022-08-03T02:25:32.340Z,20.82
2022-08-03T02:28:06.347Z,20.84
2022-08-03T02:30:39.271Z,20.86
2022-08-03T02:33:10.288Z,20.88
2022-08-03T02:35:38.008Z,20.92
2022-08-03T02:38:07.815Z,20.94
2022-08-03T02:40:36.447Z,20.96
2022-08-03T02:43:08.435Z,21.00
2022-08-03T02:45:42.545Z,21.04
2022-08-03T02:48:16.042Z,21.04
2022-08-03T02:50:45.235Z,21.04
2022-08-03T02:53:14.236Z,21.06
2022-08-03T02:55:42.959Z,21.08
2022-08-03T02:58:13.860Z,21.08
2022-08-03T03:00:44.304Z,21.04
2022-08-03T03:03:12.324Z,21.08
2022-08-03T03:05:55.377Z,21.13
2022-08-03T03:08:28.202Z,21.16
2022-08-03T03:10:59.984Z,21.18
2022-08-03T03:13:29.043Z,21.20
2022-08-03T03:15:59.722Z,21.20
2022-08-03T03:18:29.201Z,21.22
2022-08-03T03:20:58.130Z,21.23
2022-08-03T03:23:27.026Z,21.26
2022-08-03T03:25:56.266Z,21.30
2022-08-03T03:28:25.116Z,21.35
2022-08-03T03:30:53.442Z,21.49
2022-08-03T03:33:21.979Z,21.64
2022-08-03T03:35:49.747Z,21.81
2022-08-03T03:38:16.613Z,21.96
2022-08-03T03:40:44.138Z,22.08
2022-08-03T03:43:12.284Z,22.11
2022-08-03T03:45:42.536Z,22.09
2022-08-03T03:48:09.359Z,22.04
2022-08-03T03:50:37.566Z,22.00
2022-08-03T03:53:05.148Z,22.01
2022-08-03T03:55:59.086Z,22.04
2022-08-03T03:58:27.249Z,22.11
2022-08-03T04:00:54.213Z,22.16
2022-08-03T04:03:21.253Z,22.21
2022-08-03T04:06:06.504Z,22.28
2022-08-03T04:08:52.108Z,22.36
2022-08-03T04:11:42.314Z,22.46
2022-08-03T04:14:16.981Z,22.55
2022-08-03T04:16:49.279Z,22.64
2022-08-03T04:19:23.580Z,22.72
2022-08-03T04:21:53.213Z,22.82
2022-08-03T04:24:26.972Z,22.87
2022-08-03T04:26:56.062Z,22.95
2022-08-03T04:29:26.121Z,23.04
2022-08-03T04:31:55.004Z,23.13
2022-08-03T04:34:22.037Z,23.16
2022-08-03T04:36:53.094Z,23.21
2022-08-03T04:39:29.596Z,23.26
2022-08-03T04:42:08.335Z,23.33
2022-08-03T04:44:46.704Z,23.39
2022-08-03T04:47:14.090Z,23.47
2022-08-03T04:49:41.303Z,23.54
2022-08-03T04:52:10.109Z,23.60
2022-08-03T04:54:42.216Z,23.69
2022-08-03T04:57:10.332Z,23.75
2022-08-03T04:59:54.757Z,23.87
2022-08-03T05:02:24.935Z,23.88
2022-08-03T05:04:52.127Z,23.96
2022-08-03T05:07:24.142Z,24.04
2022-08-03T05:10:01.380Z,24.11
2022-08-03T05:12:33.744Z,24.21
2022-08-03T05:15:01.405Z,24.35
2022-08-03T05:17:30.743Z,24.48
2022-08-03T05:19:57.593Z,24.60
2022-08-03T05:22:24.668Z,24.69
2022-08-03T05:24:51.576Z,24.82
2022-08-03T05:27:19.636Z,25.05
2022-08-03T05:29:47.427Z,25.28
2022-08-03T05:32:14.756Z,25.50
2022-08-03T05:34:41.683Z,25.76
2022-08-03T05:37:08.805Z,26.03
2022-08-03T05:39:35.983Z,26.27
2022-08-03T05:42:03.031Z,26.50
2022-08-03T05:44:32.367Z,26.75
2022-08-03T05:46:59.539Z,26.95
2022-08-03T05:49:26.441Z,27.30
2022-08-03T05:52:00.185Z,27.70
2022-08-03T05:54:57.249Z,28.22
2022-08-03T05:57:26.064Z,28.51
2022-08-03T05:59:54.675Z,28.90
2022-08-03T06:02:26.425Z,29.92
2022-08-03T06:04:55.665Z,32.14
2022-08-03T06:07:22.916Z,33.43
2022-08-03T06:10:34.197Z,32.81
2022-08-03T06:12:37.459Z,34.25
2022-08-03T06:18:08.519Z,33.47
2022-08-03T06:20:35.481Z,32.79
2022-08-03T06:23:02.948Z,32.05
2022-08-03T06:25:30.969Z,31.29
2022-08-03T06:27:57.856Z,30.58
2022-08-03T06:30:25.014Z,29.99
2022-08-03T06:32:52.569Z,29.65
2022-08-03T06:35:20.174Z,29.43
2022-08-03T06:37:49.619Z,29.25
2022-08-03T06:40:24.456Z,29.26
2022-08-03T06:42:51.703Z,29.60
2022-08-03T06:45:18.702Z,30.26
2022-08-03T06:47:45.649Z,30.37
2022-08-03T06:50:16.950Z,30.20
2022-08-03T06:52:45.454Z,29.94
2022-08-03T06:55:12.513Z,29.27
2022-08-03T06:57:39.291Z,28.73
2022-08-03T07:00:11.838Z,29.71
2022-08-03T07:02:40.151Z,32.42
2022-08-03T07:05:08.823Z,33.08
2022-08-03T07:07:35.888Z,32.20
2022-08-03T07:10:03.038Z,31.67
2022-08-03T07:12:31.981Z,31.83
2022-08-03T07:15:02.702Z,32.93
2022-08-03T07:17:36.957Z,34.31
2022-08-03T07:20:06.795Z,36.09
2022-08-03T07:22:34.420Z,38.37
2022-08-03T07:25:01.394Z,39.98
2022-08-03T07:27:30.602Z,41.89
2022-08-03T07:29:58.797Z,42.67
2022-08-03T07:32:26.110Z,40.99
2022-08-03T07:34:58.318Z,40.06
2022-08-03T07:37:27.277Z,37.57
2022-08-03T07:39:54.110Z,36.93
2022-08-03T07:42:20.984Z,36.14
2022-08-03T07:44:47.883Z,37.38
2022-08-03T07:47:35.053Z,38.43
2022-08-03T07:50:02.621Z,39.61
2022-08-03T07:52:48.141Z,44.46
2022-08-03T07:55:19.078Z,47.33
2022-08-03T07:57:46.001Z,47.97
2022-08-03T08:00:17.224Z,48.53
2022-08-03T08:02:45.028Z,48.45
2022-08-03T08:05:17.233Z,48.11
2022-08-03T08:07:44.099Z,49.24
2022-08-03T08:10:17.707Z,50.43
2022-08-03T08:12:44.619Z,51.77
2022-08-03T08:15:11.483Z,51.83
2022-08-03T08:17:50.266Z,52.26
2022-08-03T08:20:30.797Z,52.60
2022-08-03T08:23:27.585Z,49.93
2022-08-03T08:25:54.074Z,47.83
2022-08-03T08:28:32.542Z,51.21
2022-08-03T08:31:01.398Z,49.77
2022-08-03T08:33:37.653Z,47.20
2022-08-03T08:36:15.938Z,44.60
2022-08-03T08:38:44.665Z,42.75
2022-08-03T08:41:13.282Z,44.48
2022-08-03T08:43:40.684Z,42.06
2022-08-03T08:46:08.623Z,43.35
2022-08-03T08:48:40.517Z,47.48
2022-08-03T08:51:08.625Z,50.60
2022-08-03T08:53:38.431Z,52.18
2022-08-03T08:56:08.125Z,54.18
2022-08-03T08:58:40.903Z,55.66
2022-08-03T09:01:08.547Z,55.36
2022-08-03T09:03:35.509Z,55.65
2022-08-03T09:06:03.446Z,56.55
2022-08-03T09:08:32.645Z,57.07
2022-08-03T09:11:00.187Z,56.08
2022-08-03T09:13:27.423Z,56.57
2022-08-03T09:16:14.308Z,56.77
2022-08-03T09:18:46.596Z,57.41
2022-08-03T09:21:31.160Z,58.40
2022-08-03T09:24:02.921Z,58.24
2022-08-03T09:26:33.951Z,57.26
2022-08-03T09:29:14.333Z,56.73
2022-08-03T09:31:46.872Z,57.85
2022-08-03T09:34:17.767Z,58.76
2022-08-03T09:36:46.877Z,59.35
2022-08-03T09:39:19.761Z,58.89
2022-08-03T09:42:14.774Z,56.19
2022-08-03T09:44:45.138Z,51.50
2022-08-03T09:47:16.702Z,46.70
2022-08-03T09:50:06.710Z,43.62
2022-08-03T09:52:49.141Z,41.17
2022-08-03T09:55:23.655Z,39.40
2022-08-03T09:58:09.642Z,37.46
2022-08-03T10:00:54.230Z,36.07
2022-08-03T10:03:24.380Z,35.60
2022-08-03T10:05:53.017Z,35.32
2022-08-03T10:08:23.782Z,35.10
2022-08-03T10:10:55.681Z,34.71
2022-08-03T10:13:23.559Z,34.15
2022-08-03T10:16:24.078Z,33.57
2022-08-03T10:18:40.187Z,33.37
2022-08-03T10:21:10.711Z,33.18
2022-08-03T10:23:38.896Z,33.10
2022-08-03T10:26:07.987Z,32.98
2022-08-03T10:28:41.569Z,32.85
2022-08-03T10:31:13.197Z,32.61
2022-08-03T10:33:51.532Z,32.10
2022-08-03T10:36:24.764Z,32.00
2022-08-03T10:38:53.443Z,32.08
2022-08-03T10:41:21.274Z,31.97
2022-08-03T10:43:59.247Z,31.65
2022-08-03T10:46:27.661Z,31.42
2022-08-03T10:48:56.772Z,31.41
2022-08-03T10:51:24.197Z,31.44
2022-08-03T10:53:55.383Z,31.54
2022-08-03T10:56:53.465Z,31.68
2022-08-03T10:59:59.508Z,31.57
2022-08-03T11:03:01.504Z,31.70
2022-08-03T11:05:30.417Z,31.81
2022-08-03T11:08:32.324Z,31.86
2022-08-03T11:11:28.580Z,32.00
2022-08-03T11:14:03.310Z,31.89
2022-08-03T11:16:36.560Z,31.86
2022-08-03T11:19:06.186Z,31.65
2022-08-03T11:21:51.151Z,31.40
2022-08-03T11:24:36.873Z,31.17
2022-08-03T11:27:20.030Z,31.06
2022-08-03T11:30:02.212Z,31.01
2022-08-03T11:32:38.334Z,30.97
2022-08-03T11:35:16.454Z,30.92
2022-08-03T11:38:03.123Z,30.94
2022-08-03T11:40:49.264Z,31.12
2022-08-03T11:43:22.178Z,31.09
2022-08-03T11:46:01.442Z,31.04
2022-08-03T11:48:33.999Z,30.94
2022-08-03T11:51:02.022Z,30.82
2022-08-03T11:53:31.358Z,30.76
2022-08-03T11:56:05.299Z,30.65
2022-08-03T11:59:16.469Z,30.66
2022-08-03T12:01:35.511Z,30.76
2022-08-03T12:04:06.252Z,30.76
2022-08-03T12:06:55.180Z,30.69
2022-08-03T12:09:22.130Z,30.51
2022-08-03T12:12:00.757Z,30.60
2022-08-03T12:14:48.576Z,30.65
2022-08-03T12:17:18.716Z,30.75
2022-08-03T12:19:45.825Z,30.82
2022-08-03T12:22:17.163Z,30.70
2022-08-03T12:24:46.934Z,30.56
2022-08-03T12:27:25.306Z,30.63
2022-08-03T12:29:59.018Z,30.80
2022-08-03T12:32:27.372Z,30.88
2022-08-03T12:34:55.673Z,30.80
2022-08-03T12:37:23.820Z,30.71
2022-08-03T12:40:02.489Z,30.68
2022-08-03T12:42:35.640Z,30.66
2022-08-03T12:45:23.601Z,30.69
2022-08-03T12:47:59.580Z,30.65
2022-08-03T12:50:31.333Z,30.69
2022-08-03T12:53:00.199Z,30.80
2022-08-03T12:55:57.802Z,30.93
2022-08-03T12:58:35.652Z,30.90
2022-08-03T13:01:09.758Z,30.88
2022-08-03T13:03:45.731Z,30.75
2022-08-03T13:06:22.818Z,30.55
2022-08-03T13:08:51.331Z,30.48
2022-08-03T13:11:19.270Z,30.39
2022-08-03T13:13:46.487Z,30.38
2022-08-03T13:16:18.753Z,30.46
2022-08-03T13:18:47.231Z,30.53
2022-08-03T13:21:16.453Z,30.41
2022-08-03T13:23:43.990Z,30.19
2022-08-03T13:26:12.050Z,30.01
2022-08-03T13:28:40.045Z,30.01
2022-08-03T13:31:07.347Z,30.06
2022-08-03T13:33:35.642Z,30.11
2022-08-03T13:36:02.505Z,30.05
2022-08-03T13:38:29.414Z,30.04
2022-08-03T13:40:56.432Z,30.09
2022-08-03T13:43:23.479Z,30.07
2022-08-03T13:45:54.842Z,30.05
2022-08-03T13:48:35.874Z,30.03
2022-08-03T13:51:22.244Z,29.96
2022-08-03T13:53:52.344Z,29.83
2022-08-03T13:56:19.215Z,29.79
2022-08-03T13:58:46.115Z,29.82
2022-08-03T14:01:13.116Z,29.88
2022-08-03T14:03:39.985Z,29.92
2022-08-03T14:06:07.021Z,29.94
2022-08-03T14:08:33.917Z,29.90
2022-08-03T14:11:00.847Z,29.89
2022-08-03T14:13:27.692Z,30.00
2022-08-03T14:15:55.704Z,30.08
2022-08-03T14:18:27.682Z,30.13
2022-08-03T14:21:02.003Z,30.09
2022-08-03T14:23:32.586Z,29.93
2022-08-03T14:25:59.849Z,29.83
2022-08-03T14:28:26.781Z,29.88
2022-08-03T14:30:56.018Z,29.89
2022-08-03T14:33:23.513Z,29.89
2022-08-03T14:35:51.855Z,29.85
2022-08-03T14:38:19.106Z,29.84
2022-08-03T14:40:46.506Z,29.90
2022-08-03T14:43:13.906Z,29.91
2022-08-03T14:45:43.140Z,29.83
2022-08-03T14:50:31.467Z,29.61
2022-08-03T14:50:57.289Z,29.63
2022-08-03T14:53:24.509Z,29.69
2022-08-03T14:55:53.051Z,29.63
2022-08-03T14:58:22.049Z,29.49
2022-08-03T15:00:50.440Z,29.42
2022-08-03T15:03:20.553Z,29.41
2022-08-03T15:05:47.636Z,29.37
2022-08-03T15:08:14.419Z,29.32
2022-08-03T15:10:44.758Z,29.24
2022-08-03T15:13:15.802Z,29.20
2022-08-03T15:15:42.650Z,29.15
2022-08-03T15:18:09.696Z,29.11
2022-08-03T15:20:45.473Z,29.08
2022-08-03T15:23:15.038Z,29.03
2022-08-03T15:26:29.355Z,28.98
2022-08-03T15:28:30.015Z,28.96
2022-08-03T15:30:57.066Z,28.96
2022-08-03T15:33:23.881Z,28.97
2022-08-03T15:35:50.767Z,28.95
2022-08-03T15:38:17.835Z,28.92
2022-08-03T15:40:44.903Z,28.90
2022-08-03T15:43:11.838Z,28.85
2022-08-03T15:45:38.741Z,28.83
2022-08-03T15:48:07.150Z,28.80
2022-08-03T15:50:34.257Z,28.78
2022-08-03T15:53:01.256Z,28.77
2022-08-03T15:55:28.373Z,28.75
2022-08-03T15:59:10.092Z,28.72
2022-08-03T16:00:43.201Z,28.66
2022-08-03T16:03:10.626Z,28.60
2022-08-03T16:05:39.824Z,28.54
2022-08-03T16:08:11.668Z,28.48
2022-08-03T16:10:41.203Z,28.41
2022-08-03T16:13:16.287Z,28.37
2022-08-03T16:15:43.242Z,28.28
2022-08-03T16:18:10.033Z,28.23
2022-08-03T16:20:36.905Z,28.16
2022-08-03T16:23:10.361Z,28.09
2022-08-03T16:25:41.278Z,28.04
2022-08-03T16:28:14.843Z,27.97
2022-08-03T16:30:45.236Z,27.95
2022-08-03T16:33:16.753Z,27.89
2022-08-03T16:35:46.199Z,27.84
2022-08-03T16:38:18.361Z,27.82
2022-08-03T16:40:51.990Z,27.79
2022-08-03T16:43:21.220Z,27.78
2022-08-03T16:45:48.870Z,27.72
2022-08-03T16:48:16.834Z,27.67
2022-08-03T16:50:44.715Z,27.64
2022-08-03T16:53:16.363Z,27.60
2022-08-03T16:55:52.054Z,27.58
2022-08-03T16:58:41.254Z,27.54
2022-08-03T17:01:22.038Z,27.48
2022-08-03T17:04:01.252Z,27.46
2022-08-03T17:06:34.235Z,27.39
2022-08-03T17:09:08.433Z,27.31
2022-08-03T17:11:37.795Z,27.28
2022-08-03T17:14:09.522Z,27.24
2022-08-03T17:16:38.354Z,27.22
2022-08-03T17:19:07.498Z,27.20
2022-08-03T17:21:39.508Z,27.17
2022-08-03T17:24:19.727Z,27.15
2022-08-03T17:26:49.872Z,27.11
2022-08-03T17:29:25.256Z,27.08
2022-08-03T17:31:56.664Z,27.04
2022-08-03T17:34:26.299Z,27.05
2022-08-03T17:37:27.283Z,27.05
2022-08-03T17:39:59.854Z,27.04
2022-08-03T17:42:38.813Z,26.98
2022-08-03T17:45:07.281Z,26.92
2022-08-03T17:47:42.133Z,26.82
2022-08-03T17:53:23.609Z,26.76
2022-08-03T17:56:38.762Z,26.72
2022-08-03T17:59:08.595Z,26.69
2022-08-03T18:02:25.167Z,26.58
2022-08-03T18:05:15.987Z,26.45
2022-08-03T18:07:59.290Z,26.38
2022-08-03T18:10:34.315Z,26.37
2022-08-03T18:13:10.551Z,26.40
2022-08-03T18:15:45.181Z,26.36
2022-08-03T18:18:16.050Z,26.27
2022-08-03T18:20:57.028Z,26.30
2022-08-03T18:23:36.686Z,26.38
2022-08-03T18:26:07.539Z,26.40
2022-08-03T18:28:39.164Z,26.38
2022-08-03T18:31:07.569Z,26.41
2022-08-03T18:34:32.145Z,26.44
2022-08-03T18:36:29.583Z,26.45
2022-08-03T18:38:59.353Z,26.49
2022-08-03T18:41:32.172Z,26.48
2022-08-03T18:44:37.762Z,26.43
2022-08-03T18:47:16.502Z,26.43
2022-08-03T18:50:08.959Z,26.45
2022-08-03T18:53:05.116Z,26.42
2022-08-03T18:56:04.185Z,26.36
2022-08-03T18:59:02.530Z,26.31
2022-08-03T19:01:59.952Z,26.26
2022-08-03T19:07:27.538Z,26.11
2022-08-03T19:10:09.467Z,26.05
2022-08-03T19:12:45.341Z,26.00
2022-08-03T19:15:15.809Z,25.94
2022-08-03T19:17:53.252Z,25.90
2022-08-03T19:20:31.276Z,25.86
2022-08-03T19:22:59.682Z,25.80
2022-08-03T19:25:35.159Z,25.73
2022-08-03T19:28:06.191Z,25.69
2022-08-03T19:30:40.272Z,25.68
2022-08-03T19:33:13.153Z,25.59
2022-08-03T19:35:55.066Z,25.55
2022-08-03T19:38:29.145Z,25.51
2022-08-03T19:41:01.003Z,25.47
2022-08-03T19:43:49.444Z,25.46
2022-08-03T19:46:30.315Z,25.37
2022-08-03T19:49:14.795Z,25.35
2022-08-03T19:52:01.771Z,25.31
2022-08-03T19:54:52.804Z,25.26
2022-08-03T19:57:24.150Z,25.21
2022-08-03T19:59:53.383Z,25.17
2022-08-03T20:02:26.908Z,25.14
2022-08-03T20:04:56.240Z,25.11
2022-08-03T20:07:24.311Z,25.07
2022-08-03T20:09:56.155Z,25.06
2022-08-03T20:12:29.014Z,25.03
2022-08-03T20:14:59.967Z,25.01
2022-08-03T20:17:54.778Z,24.97
2022-08-03T20:20:20.051Z,24.95
2022-08-03T20:22:53.310Z,24.89
2022-08-03T20:25:38.310Z,24.90
2022-08-03T20:28:22.905Z,24.88
2022-08-03T20:30:55.183Z,24.82
2022-08-03T20:33:27.829Z,24.78
2022-08-03T20:36:10.400Z,24.73
2022-08-03T20:38:43.579Z,24.70
2022-08-03T20:41:10.807Z,24.63
2022-08-03T20:43:37.741Z,24.65
2022-08-03T20:46:31.114Z,24.65
2022-08-03T20:48:52.840Z,24.60
2022-08-03T20:51:49.836Z,24.58
2022-08-03T20:54:20.882Z,24.55
2022-08-03T20:56:54.731Z,24.52
2022-08-03T20:59:24.292Z,24.49
2022-08-03T21:01:51.099Z,24.39
2022-08-03T21:07:16.297Z,24.39
2022-08-03T21:09:57.115Z,24.31
2022-08-03T21:12:39.829Z,24.26
2022-08-03T21:13:01.260Z,26.19
2022-08-03T21:13:05.401Z,26.79
2022-08-03T21:13:07.969Z,24.40
2022-08-03T21:15:09.666Z,24.24
2022-08-03T21:17:58.942Z,24.23
2022-08-03T21:20:30.841Z,24.23
2022-08-03T21:22:59.428Z,24.21
2022-08-03T21:25:32.310Z,24.18
2022-08-03T21:28:00.517Z,24.16
2022-08-03T21:30:29.911Z,24.19
2022-08-03T21:32:58.461Z,24.13
2022-08-03T21:35:25.881Z,24.09
2022-08-03T21:38:12.452Z,24.07
2022-08-03T21:40:40.993Z,24.07
2022-08-03T21:43:08.538Z,24.05
2022-08-03T21:45:47.519Z,24.04
2022-08-03T21:48:15.665Z,24.01
2022-08-03T21:50:44.003Z,23.98
2022-08-03T21:53:11.925Z,24.02
2022-08-03T21:55:40.233Z,24.02
2022-08-03T21:58:08.033Z,24.05
2022-08-03T22:00:35.202Z,24.05
2022-08-03T22:03:15.159Z,24.07
2022-08-03T22:05:44.325Z,24.07
2022-08-03T22:08:14.294Z,24.08
2022-08-03T22:10:44.578Z,24.08
2022-08-03T22:13:19.547Z,24.05
2022-08-03T22:16:05.823Z,24.02
2022-08-03T22:18:35.997Z,24.01
2022-08-03T22:21:04.173Z,24.04
2022-08-03T22:23:31.827Z,24.02
2022-08-03T22:26:03.530Z,23.99
2022-08-03T22:28:31.061Z,23.94
2022-08-03T22:31:00.494Z,23.94
2022-08-03T22:33:48.577Z,23.88
2022-08-03T22:36:18.971Z,23.85
2022-08-03T22:38:50.827Z,23.81
2022-08-03T22:41:18.923Z,23.75
2022-08-03T22:43:45.981Z,23.70
2022-08-03T22:46:18.688Z,23.70
2022-08-03T22:48:47.225Z,23.67
2022-08-03T22:51:15.809Z,23.64
2022-08-03T22:53:47.311Z,23.58
2022-08-03T22:56:14.734Z,23.54
2022-08-03T22:58:41.563Z,23.48
2022-08-03T23:01:11.949Z,23.38
2022-08-03T23:04:00.661Z,23.39
2022-08-03T23:06:35.661Z,23.33
2022-08-03T23:09:13.604Z,23.23
2022-08-03T23:11:45.189Z,23.18
2022-08-03T23:14:15.451Z,23.15
2022-08-03T23:16:43.164Z,22.97
2022-08-03T23:19:16.667Z,22.93
2022-08-03T23:22:00.259Z,22.90
2022-08-03T23:24:30.432Z,22.86
2022-08-03T23:26:59.238Z,22.81
2022-08-03T23:29:29.513Z,22.73
2022-08-03T23:31:57.915Z,22.70
2022-08-03T23:34:43.746Z,22.67
2022-08-03T23:37:14.068Z,22.66
2022-08-03T23:39:44.855Z,22.63
2022-08-03T23:42:15.184Z,22.62
2022-08-03T23:44:43.880Z,22.58
2022-08-03T23:47:14.483Z,22.57
2022-08-03T23:49:41.361Z,22.50
2022-08-03T23:52:45.490Z,22.49
2022-08-03T23:55:21.130Z,22.48
2022-08-03T23:58:32.304Z,22.48
